createdAt,value
2019-05-22T00:01:39.780Z,8.99
2019-05-22T00:04:16.255Z,9.02
2019-05-22T00:06:45.054Z,9.00
2019-05-22T00:09:22.629Z,9.00
2019-05-22T00:11:52.083Z,8.89
2019-05-22T00:14:20.123Z,8.99
2019-05-22T00:16:50.358Z,8.96
2019-05-22T00:19:20.170Z,8.97
2019-05-22T00:21:51.435Z,8.96
2019-05-22T00:24:19.698Z,8.93
2019-05-22T00:26:50.242Z,8.96
2019-05-22T00:29:17.749Z,8.98
2019-05-22T00:31:47.678Z,8.89
2019-05-22T00:34:16.850Z,8.96
2019-05-22T00:36:46.959Z,8.96
2019-05-22T00:39:17.489Z,8.96
2019-05-22T00:41:50.767Z,9.03
2019-05-22T00:44:21.386Z,8.97
2019-05-22T00:46:52.342Z,8.94
2019-05-22T00:49:24.342Z,8.96
2019-05-22T00:52:08.869Z,8.98
2019-05-22T00:54:54.813Z,8.97
2019-05-22T00:57:29.611Z,8.98
2019-05-22T01:00:16.190Z,9.06
2019-05-22T01:02:47.241Z,9.02
2019-05-22T01:05:17.560Z,8.94
2019-05-22T01:07:47.014Z,8.92
2019-05-22T01:10:17.749Z,8.96
2019-05-22T01:12:49.746Z,9.00
2019-05-22T01:15:21.406Z,8.98
2019-05-22T01:17:49.584Z,8.97
2019-05-22T01:20:19.012Z,8.89
2019-05-22T01:22:49.339Z,8.98
2019-05-22T01:25:21.662Z,9.06
2019-05-22T01:27:49.789Z,9.09
2019-05-22T01:30:28.402Z,9.05
2019-05-22T01:32:59.172Z,9.05
2019-05-22T01:35:32.749Z,8.98
2019-05-22T01:38:01.047Z,9.09
2019-05-22T01:40:42.638Z,9.07
2019-05-22T01:43:14.025Z,9.09
2019-05-22T01:45:52.331Z,9.04
2019-05-22T01:48:22.745Z,9.00
2019-05-22T01:51:03.338Z,8.96
2019-05-22T01:53:37.326Z,8.91
2019-05-22T01:56:07.411Z,9.07
2019-05-22T01:58:37.084Z,9.05
2019-05-22T02:01:09.973Z,9.06
2019-05-22T02:03:38.923Z,9.06
2019-05-22T02:06:07.316Z,9.01
2019-05-22T02:08:41.170Z,8.90
2019-05-22T02:11:12.497Z,9.02
2019-05-22T02:13:45.629Z,9.03
2019-05-22T02:16:16.780Z,9.04
2019-05-22T02:18:45.408Z,9.08
2019-05-22T02:21:15.628Z,9.06
2019-05-22T02:23:43.564Z,9.05
2019-05-22T02:26:13.791Z,8.98
2019-05-22T02:28:42.917Z,8.97
2019-05-22T02:31:17.032Z,8.96
2019-05-22T02:34:01.187Z,8.94
2019-05-22T02:36:29.068Z,8.96
2019-05-22T02:38:58.550Z,8.99
2019-05-22T02:41:35.444Z,9.02
2019-05-22T02:44:03.545Z,8.98
2019-05-22T02:46:31.971Z,8.89
2019-05-22T02:49:01.533Z,9.00
2019-05-22T02:51:29.725Z,8.95
2019-05-22T02:54:01.421Z,8.93
2019-05-22T02:56:30.877Z,8.96
2019-05-22T02:59:00.030Z,8.93
2019-05-22T03:01:29.661Z,8.98
2019-05-22T03:03:58.892Z,8.99
2019-05-22T03:06:27.825Z,8.99
2019-05-22T03:09:28.588Z,8.94
2019-05-22T03:12:01.086Z,8.93
2019-05-22T03:14:32.509Z,8.92
2019-05-22T03:17:02.663Z,8.90
2019-05-22T03:19:36.208Z,8.94
2019-05-22T03:22:20.870Z,8.94
2019-05-22T03:24:50.991Z,8.90
2019-05-22T03:27:26.655Z,8.86
2019-05-22T03:29:55.967Z,8.88
2019-05-22T03:32:24.185Z,8.82
2019-05-22T03:34:52.885Z,8.93
2019-05-22T03:37:21.147Z,8.82
2019-05-22T03:39:49.875Z,8.83
2019-05-22T03:42:20.355Z,8.86
2019-05-22T03:44:49.127Z,8.78
2019-05-22T03:47:17.338Z,8.74
2019-05-22T03:49:46.002Z,8.88
2019-05-22T03:52:14.825Z,8.86
2019-05-22T03:54:43.313Z,8.92
2019-05-22T03:57:12.525Z,8.89
2019-05-22T03:59:41.222Z,8.87
2019-05-22T04:02:10.103Z,8.85
2019-05-22T04:04:41.689Z,8.87
2019-05-22T04:07:15.875Z,8.96
2019-05-22T04:09:44.501Z,8.87
2019-05-22T04:12:13.438Z,8.92
2019-05-22T04:14:41.905Z,8.87
2019-05-22T04:17:12.476Z,8.87
2019-05-22T04:19:49.347Z,8.86
2019-05-22T04:22:11.113Z,8.80
2019-05-22T04:24:40.418Z,8.86
2019-05-22T04:27:10.477Z,8.84
2019-05-22T04:29:39.244Z,8.83
2019-05-22T04:32:25.112Z,8.79
2019-05-22T04:34:53.997Z,8.79
2019-05-22T04:37:23.066Z,8.73
2019-05-22T04:39:54.555Z,8.62
2019-05-22T04:42:26.361Z,8.70
2019-05-22T04:45:12.822Z,8.67
2019-05-22T04:47:48.347Z,8.74
2019-05-22T04:50:16.853Z,8.75
2019-05-22T04:52:46.200Z,8.68
2019-05-22T04:55:14.754Z,8.64
2019-05-22T04:57:43.383Z,8.60
2019-05-22T05:00:12.531Z,8.62
2019-05-22T05:02:41.131Z,8.66
2019-05-22T05:05:11.299Z,8.65
2019-05-22T05:07:41.012Z,8.61
2019-05-22T05:10:10.400Z,8.67
2019-05-22T05:12:41.441Z,8.64
2019-05-22T05:15:10.644Z,8.63
2019-05-22T05:17:39.126Z,8.64
2019-05-22T05:20:21.384Z,8.60
2019-05-22T05:22:42.467Z,8.65
2019-05-22T05:25:11.330Z,8.66
2019-05-22T05:27:39.625Z,8.68
2019-05-22T05:30:08.080Z,8.75
2019-05-22T05:32:36.896Z,8.69
2019-05-22T05:35:07.556Z,8.72
2019-05-22T05:37:36.048Z,8.74
2019-05-22T05:40:38.785Z,8.81
2019-05-22T05:43:08.092Z,8.83
2019-05-22T05:45:38.217Z,8.86
2019-05-22T05:48:09.130Z,8.83
2019-05-22T05:50:40.585Z,8.84
2019-05-22T05:53:18.794Z,8.87
2019-05-22T05:56:24.871Z,8.88
2019-05-22T05:58:53.961Z,8.89
2019-05-22T06:01:32.434Z,8.85
2019-05-22T06:04:01.566Z,8.82
2019-05-22T06:07:09.865Z,8.80
2019-05-22T06:09:37.890Z,8.76
2019-05-22T06:12:08.813Z,8.84
2019-05-22T06:14:38.210Z,8.82
2019-05-22T06:17:56.657Z,8.78
2019-05-22T06:20:25.719Z,8.79
2019-05-22T06:23:44.601Z,8.83
2019-05-22T06:26:36.876Z,8.85
2019-05-22T06:29:04.924Z,8.79
2019-05-22T06:31:43.583Z,8.79
2019-05-22T06:34:11.980Z,8.79
2019-05-22T06:36:40.665Z,8.79
2019-05-22T06:39:11.952Z,8.84
2019-05-22T06:41:42.502Z,8.84
2019-05-22T06:44:43.565Z,8.83
2019-05-22T06:47:15.521Z,8.79
2019-05-22T06:49:48.469Z,8.87
2019-05-22T06:52:16.259Z,8.93
2019-05-22T06:54:44.265Z,8.92
2019-05-22T06:57:30.367Z,8.97
2019-05-22T07:00:14.173Z,9.01
2019-05-22T07:02:35.062Z,9.00
2019-05-22T07:05:05.465Z,9.17
2019-05-22T07:07:34.026Z,9.28
2019-05-22T07:10:03.856Z,9.24
2019-05-22T07:12:35.198Z,9.36
2019-05-22T07:15:31.306Z,9.37
2019-05-22T07:18:00.923Z,9.41
2019-05-22T07:20:32.070Z,9.41
2019-05-22T07:23:01.323Z,9.44
2019-05-22T07:25:30.839Z,9.48
2019-05-22T07:27:59.845Z,9.49
2019-05-22T07:30:28.579Z,9.40
2019-05-22T07:32:57.275Z,9.35
2019-05-22T07:35:43.777Z,9.40
2019-05-22T07:37:57.057Z,9.54
2019-05-22T07:40:25.801Z,9.66
2019-05-22T07:42:55.898Z,9.71
2019-05-22T07:45:26.706Z,9.78
2019-05-22T07:47:55.753Z,9.86
2019-05-22T07:50:24.030Z,9.90
2019-05-22T07:52:52.321Z,9.93
2019-05-22T07:55:22.232Z,10.01
2019-05-22T07:57:55.075Z,10.01
2019-05-22T08:00:23.273Z,10.10
2019-05-22T08:02:52.089Z,10.10
2019-05-22T08:05:23.055Z,10.09
2019-05-22T08:07:51.181Z,10.03
2019-05-22T08:10:21.315Z,10.13
2019-05-22T08:12:49.915Z,10.10
2019-05-22T08:15:18.299Z,10.09
2019-05-22T08:17:46.700Z,10.09
2019-05-22T08:20:15.306Z,10.28
2019-05-22T08:22:44.404Z,10.18
2019-05-22T08:25:13.126Z,10.29
2019-05-22T08:27:42.026Z,10.37
2019-05-22T08:30:10.734Z,10.40
2019-05-22T08:32:39.901Z,10.58
2019-05-22T08:35:08.131Z,10.64
2019-05-22T08:37:38.249Z,10.67
2019-05-22T08:40:06.751Z,10.55
2019-05-22T08:42:35.788Z,10.57
2019-05-22T08:45:05.216Z,10.70
2019-05-22T08:47:33.172Z,10.78
2019-05-22T08:50:01.686Z,10.76
2019-05-22T08:52:30.931Z,10.95
2019-05-22T08:54:58.848Z,11.08
2019-05-22T08:57:27.196Z,11.09
2019-05-22T08:59:55.704Z,11.15
2019-05-22T09:02:24.602Z,11.14
2019-05-22T09:04:52.773Z,11.10
2019-05-22T09:07:21.614Z,10.97
2019-05-22T09:09:50.219Z,10.88
2019-05-22T09:12:19.400Z,10.73
2019-05-22T09:14:48.285Z,10.71
2019-05-22T09:17:17.272Z,10.80
2019-05-22T09:19:45.841Z,10.93
2019-05-22T09:22:14.237Z,11.14
2019-05-22T09:24:42.857Z,11.38
2019-05-22T09:27:12.174Z,11.53
2019-05-22T09:29:42.605Z,11.87
2019-05-22T09:32:10.795Z,12.13
2019-05-22T09:34:39.215Z,12.06
2019-05-22T09:37:07.519Z,12.22
2019-05-22T09:39:36.202Z,12.27
2019-05-22T09:42:04.590Z,12.33
2019-05-22T09:44:33.279Z,12.33
2019-05-22T09:47:01.967Z,12.25
2019-05-22T09:49:31.706Z,12.00
2019-05-22T09:52:00.754Z,11.74
2019-05-22T09:54:29.011Z,11.83
2019-05-22T09:56:57.131Z,12.27
2019-05-22T09:59:24.758Z,12.86
2019-05-22T10:01:53.283Z,13.24
2019-05-22T10:04:21.581Z,13.50
2019-05-22T10:06:49.750Z,13.40
2019-05-22T10:09:18.574Z,13.22
2019-05-22T10:11:46.632Z,13.18
2019-05-22T10:14:15.197Z,13.16
2019-05-22T10:16:43.850Z,13.10
2019-05-22T10:19:12.190Z,13.26
2019-05-22T10:21:40.765Z,13.53
2019-05-22T10:24:09.364Z,13.81
2019-05-22T10:26:37.740Z,14.11
2019-05-22T10:29:06.331Z,14.15
2019-05-22T10:31:34.782Z,13.84
2019-05-22T10:34:03.478Z,13.87
2019-05-22T10:36:31.405Z,13.77
2019-05-22T10:39:00.206Z,13.59
2019-05-22T10:41:28.948Z,13.35
2019-05-22T10:43:57.222Z,13.32
2019-05-22T10:46:25.962Z,13.61
2019-05-22T10:48:54.576Z,13.70
2019-05-22T10:51:23.246Z,14.32
2019-05-22T10:53:52.020Z,14.86
2019-05-22T10:56:20.310Z,15.55
2019-05-22T10:58:48.848Z,15.07
2019-05-22T11:01:17.681Z,15.23
2019-05-22T11:03:46.421Z,15.15
2019-05-22T11:06:15.881Z,14.65
2019-05-22T11:08:44.551Z,14.51
2019-05-22T11:11:12.557Z,14.67
2019-05-22T11:13:40.927Z,14.94
2019-05-22T11:16:09.797Z,15.28
2019-05-22T11:18:38.068Z,15.83
2019-05-22T11:21:07.010Z,15.90
2019-05-22T11:23:50.633Z,16.07
2019-05-22T11:26:05.840Z,15.86
2019-05-22T11:28:34.264Z,15.44
2019-05-22T11:31:03.564Z,14.64
2019-05-22T11:33:34.287Z,14.62
2019-05-22T11:36:02.768Z,14.64
2019-05-22T11:38:30.916Z,14.76
2019-05-22T11:40:58.874Z,14.95
2019-05-22T11:43:27.579Z,15.14
2019-05-22T11:45:56.358Z,15.25
2019-05-22T11:48:24.862Z,15.07
2019-05-22T11:50:53.409Z,15.26
2019-05-22T11:53:21.351Z,15.50
2019-05-22T11:55:49.902Z,14.98
2019-05-22T11:58:19.082Z,14.60
2019-05-22T12:00:53.825Z,14.35
2019-05-22T12:03:26.282Z,14.18
2019-05-22T12:05:54.557Z,14.69
2019-05-22T12:08:24.617Z,15.07
2019-05-22T12:10:52.540Z,14.89
2019-05-22T12:13:20.871Z,14.59
2019-05-22T12:15:49.067Z,14.68
2019-05-22T12:18:17.488Z,14.94
2019-05-22T12:20:46.289Z,15.26
2019-05-22T12:23:14.633Z,15.69
2019-05-22T12:25:43.112Z,16.08
2019-05-22T12:28:11.895Z,16.57
2019-05-22T12:30:44.802Z,17.21
2019-05-22T12:33:14.669Z,17.47
2019-05-22T12:35:43.907Z,17.47
2019-05-22T12:38:12.996Z,17.51
2019-05-22T12:40:44.475Z,17.22
2019-05-22T12:43:17.003Z,17.21
2019-05-22T12:45:45.482Z,17.50
2019-05-22T12:48:15.294Z,17.12
2019-05-22T12:50:47.080Z,17.12
2019-05-22T12:53:16.594Z,17.31
2019-05-22T12:55:47.692Z,17.74
2019-05-22T12:58:17.468Z,17.78
2019-05-22T13:00:45.697Z,17.78
2019-05-22T13:03:19.372Z,17.18
2019-05-22T13:05:51.372Z,16.68
2019-05-22T13:08:19.087Z,16.94
2019-05-22T13:10:48.938Z,16.94
2019-05-22T13:13:17.585Z,16.89
2019-05-22T13:15:46.325Z,16.62
2019-05-22T13:18:16.765Z,16.11
2019-05-22T13:20:49.142Z,16.54
2019-05-22T13:23:19.438Z,17.29
2019-05-22T13:25:48.476Z,16.78
2019-05-22T13:28:17.817Z,16.17
2019-05-22T13:30:50.792Z,15.63
2019-05-22T13:33:21.700Z,15.50
2019-05-22T13:35:50.279Z,15.77
2019-05-22T13:38:21.030Z,16.30
2019-05-22T13:40:49.713Z,16.28
2019-05-22T13:43:19.383Z,15.87
2019-05-22T13:45:51.851Z,15.51
2019-05-22T13:48:20.410Z,15.35
2019-05-22T13:50:52.264Z,16.27
2019-05-22T13:53:22.572Z,16.76
2019-05-22T13:55:52.261Z,16.49
2019-05-22T13:58:21.921Z,16.24
2019-05-22T14:00:55.084Z,15.96
2019-05-22T14:03:24.042Z,16.40
2019-05-22T14:05:56.093Z,16.51
2019-05-22T14:08:24.371Z,16.17
2019-05-22T14:10:54.308Z,16.24
2019-05-22T14:13:25.323Z,16.00
2019-05-22T14:15:56.876Z,15.65
2019-05-22T14:18:23.407Z,15.38
2019-05-22T14:20:51.284Z,15.31
2019-05-22T14:23:20.212Z,15.91
2019-05-22T14:25:48.476Z,17.82
2019-05-22T14:28:16.729Z,19.94
2019-05-22T14:30:50.886Z,19.75
2019-05-22T14:33:19.653Z,18.40
2019-05-22T14:35:49.564Z,16.95
2019-05-22T14:38:18.332Z,16.09
2019-05-22T14:40:47.117Z,16.78
2019-05-22T14:43:15.435Z,18.67
2019-05-22T14:45:44.332Z,19.17
2019-05-22T14:48:13.412Z,18.27
2019-05-22T14:50:43.559Z,18.36
2019-05-22T14:53:13.252Z,20.07
2019-05-22T14:55:42.476Z,19.55
2019-05-22T14:58:11.939Z,18.24
2019-05-22T15:00:45.213Z,17.02
2019-05-22T15:03:15.767Z,16.40
2019-05-22T15:05:44.971Z,17.34
2019-05-22T15:08:13.371Z,18.47
2019-05-22T15:10:41.677Z,19.56
2019-05-22T15:13:09.714Z,18.88
2019-05-22T15:15:40.994Z,17.61
2019-05-22T15:18:12.568Z,17.57
2019-05-22T15:20:48.616Z,16.32
2019-05-22T15:23:17.336Z,16.32
2019-05-22T15:25:48.583Z,15.63
2019-05-22T15:28:17.412Z,15.84
2019-05-22T15:30:45.847Z,17.74
2019-05-22T15:33:14.252Z,19.19
2019-05-22T15:35:41.969Z,19.91
2019-05-22T15:38:10.389Z,19.58
2019-05-22T15:40:38.730Z,18.29
2019-05-22T15:43:07.727Z,17.36
2019-05-22T15:45:40.831Z,16.43
2019-05-22T15:48:12.929Z,15.77
2019-05-22T15:50:43.087Z,15.51
2019-05-22T15:53:15.042Z,15.48
2019-05-22T15:55:43.636Z,15.91
2019-05-22T15:58:17.421Z,15.98
2019-05-22T16:00:46.918Z,15.76
2019-05-22T16:03:20.248Z,15.57
2019-05-22T16:05:50.884Z,15.80
2019-05-22T16:08:22.369Z,16.21
2019-05-22T16:10:51.945Z,16.54
2019-05-22T16:13:22.641Z,16.86
2019-05-22T16:15:55.029Z,16.75
2019-05-22T16:18:28.711Z,16.31
2019-05-22T16:21:00.192Z,15.68
2019-05-22T16:23:31.103Z,15.30
2019-05-22T16:25:59.534Z,15.36
2019-05-22T16:28:33.174Z,15.56
2019-05-22T16:30:59.867Z,15.71
2019-05-22T16:33:28.257Z,15.62
2019-05-22T16:35:57.003Z,15.62
2019-05-22T16:38:25.750Z,15.62
2019-05-22T16:40:54.664Z,15.87
2019-05-22T16:43:23.036Z,15.72
2019-05-22T16:45:51.626Z,15.66
2019-05-22T16:48:28.973Z,15.15
2019-05-22T16:50:51.013Z,15.34
2019-05-22T16:53:21.437Z,15.49
2019-05-22T16:55:49.913Z,15.54
2019-05-22T16:58:18.858Z,15.62
2019-05-22T17:00:49.434Z,15.35
2019-05-22T17:03:18.723Z,15.18
2019-05-22T17:05:47.941Z,15.07
2019-05-22T17:08:15.979Z,14.93
2019-05-22T17:10:44.056Z,15.10
2019-05-22T17:13:13.972Z,15.04
2019-05-22T17:15:42.972Z,15.06
2019-05-22T17:18:13.302Z,15.06
2019-05-22T17:20:42.466Z,15.08
2019-05-22T17:23:10.649Z,14.97
2019-05-22T17:25:39.006Z,14.94
2019-05-22T17:28:07.595Z,14.75
2019-05-22T17:30:36.699Z,14.50
2019-05-22T17:33:05.348Z,14.21
2019-05-22T17:35:33.847Z,13.91
2019-05-22T17:38:03.048Z,13.71
2019-05-22T17:40:31.193Z,13.64
2019-05-22T17:42:59.497Z,13.59
2019-05-22T17:45:28.541Z,13.58
2019-05-22T17:47:57.309Z,13.35
2019-05-22T17:50:27.728Z,13.10
2019-05-22T17:52:56.642Z,12.97
2019-05-22T17:55:25.512Z,12.84
2019-05-22T17:57:54.181Z,12.72
2019-05-22T18:00:28.519Z,12.63
2019-05-22T18:02:57.671Z,12.51
2019-05-22T18:05:28.287Z,12.36
2019-05-22T18:07:57.171Z,12.22
2019-05-22T18:10:26.040Z,12.05
2019-05-22T18:12:53.936Z,11.95
2019-05-22T18:15:23.075Z,11.85
2019-05-22T18:17:51.763Z,11.74
2019-05-22T18:20:20.429Z,11.64
2019-05-22T18:22:49.034Z,11.54
2019-05-22T18:25:18.114Z,11.45
2019-05-22T18:27:46.846Z,11.38
2019-05-22T18:30:15.236Z,11.32
2019-05-22T18:32:43.563Z,11.28
2019-05-22T18:35:14.592Z,11.18
2019-05-22T18:37:42.595Z,11.12
2019-05-22T18:40:12.832Z,11.07
2019-05-22T18:42:41.193Z,11.04
2019-05-22T18:45:10.860Z,11.02
2019-05-22T18:47:38.961Z,10.99
2019-05-22T18:50:06.960Z,10.98
2019-05-22T18:52:41.244Z,10.93
2019-05-22T18:55:06.466Z,10.83
2019-05-22T18:57:34.782Z,10.74
2019-05-22T19:00:06.002Z,10.65
2019-05-22T19:02:33.426Z,10.55
2019-05-22T19:05:01.582Z,10.44
2019-05-22T19:07:29.960Z,10.35
2019-05-22T19:09:58.225Z,10.28
2019-05-22T19:12:26.324Z,10.21
2019-05-22T19:14:53.951Z,10.14
2019-05-22T19:17:22.985Z,10.09
2019-05-22T19:19:51.791Z,10.04
2019-05-22T19:22:20.268Z,9.98
2019-05-22T19:24:47.966Z,9.96
2019-05-22T19:27:16.806Z,9.89
2019-05-22T19:29:45.228Z,9.89
2019-05-22T19:32:13.688Z,9.85
2019-05-22T19:34:41.691Z,9.81
2019-05-22T19:37:10.126Z,9.76
2019-05-22T19:39:38.241Z,9.74
2019-05-22T19:42:07.090Z,9.69
2019-05-22T19:44:35.932Z,9.64
2019-05-22T19:47:04.819Z,9.59
2019-05-22T19:49:33.065Z,9.53
2019-05-22T19:52:02.060Z,9.50
2019-05-22T19:54:30.275Z,9.46
2019-05-22T19:56:59.003Z,9.38
2019-05-22T19:59:27.459Z,9.29
2019-05-22T20:01:55.770Z,9.16
2019-05-22T20:04:24.267Z,9.04
2019-05-22T20:06:52.524Z,8.92
2019-05-22T20:09:21.495Z,8.76
2019-05-22T20:11:50.247Z,8.66
2019-05-22T20:14:20.205Z,8.58
2019-05-22T20:16:48.788Z,8.53
2019-05-22T20:19:17.206Z,8.49
2019-05-22T20:21:47.018Z,8.35
2019-05-22T20:24:15.714Z,8.30
2019-05-22T20:26:46.117Z,8.22
2019-05-22T20:29:16.127Z,8.18
2019-05-22T20:31:44.582Z,8.11
2019-05-22T20:34:12.917Z,8.11
2019-05-22T20:36:41.754Z,8.05
2019-05-22T20:39:12.707Z,8.07
2019-05-22T20:41:41.650Z,7.99
2019-05-22T20:44:10.575Z,7.99
2019-05-22T20:46:41.018Z,7.91
2019-05-22T20:49:12.113Z,7.89
2019-05-22T20:51:41.739Z,7.85
2019-05-22T20:54:11.088Z,7.88
2019-05-22T20:56:39.842Z,7.84
2019-05-22T20:59:10.149Z,7.88
2019-05-22T21:01:39.852Z,7.81
2019-05-22T21:04:12.898Z,7.73
2019-05-22T21:06:49.751Z,7.71
2019-05-22T21:09:18.033Z,7.71
2019-05-22T21:11:47.197Z,7.63
2019-05-22T21:14:16.543Z,7.60
2019-05-22T21:16:45.713Z,7.67
2019-05-22T21:19:16.489Z,7.61
2019-05-22T21:21:45.901Z,7.59
2019-05-22T21:24:14.687Z,7.52
2019-05-22T21:26:44.822Z,7.48
2019-05-22T21:29:13.967Z,7.42
2019-05-22T21:31:47.750Z,7.36
2019-05-22T21:34:15.601Z,7.25
2019-05-22T21:36:44.517Z,7.15
2019-05-22T21:39:14.923Z,7.12
2019-05-22T21:41:43.904Z,7.11
2019-05-22T21:44:11.916Z,7.00
2019-05-22T21:46:41.633Z,6.96
2019-05-22T21:49:10.178Z,6.97
2019-05-22T21:51:38.496Z,6.91
2019-05-22T21:54:07.383Z,6.87
2019-05-22T21:56:35.366Z,6.82
2019-05-22T21:59:03.532Z,6.80
2019-05-22T22:01:39.593Z,6.76
2019-05-22T22:04:20.057Z,6.72
2019-05-22T22:06:49.276Z,6.83
2019-05-22T22:09:17.992Z,6.81
2019-05-22T22:11:47.767Z,6.69
2019-05-22T22:14:16.409Z,6.60
2019-05-22T22:16:45.153Z,6.52
2019-05-22T22:19:14.684Z,6.65
2019-05-22T22:21:42.954Z,6.65
2019-05-22T22:24:12.154Z,6.57
2019-05-22T22:26:40.881Z,6.46
2019-05-22T22:29:09.802Z,6.39
2019-05-22T22:31:38.949Z,6.31
2019-05-22T22:34:17.122Z,6.24
2019-05-22T22:36:45.533Z,6.30
2019-05-22T22:39:15.012Z,6.37
2019-05-22T22:41:45.760Z,6.36
2019-05-22T22:44:14.673Z,6.20
2019-05-22T22:47:02.425Z,6.16
2019-05-22T22:49:31.908Z,6.12
2019-05-22T22:52:00.707Z,6.24
2019-05-22T22:54:29.927Z,6.04
2019-05-22T22:56:59.361Z,5.89
2019-05-22T22:59:28.052Z,6.00
2019-05-22T23:01:59.328Z,6.01
2019-05-22T23:04:28.149Z,6.00
2019-05-22T23:07:00.841Z,6.02
2019-05-22T23:09:30.233Z,6.01
2019-05-22T23:11:59.402Z,5.98
2019-05-22T23:14:28.884Z,5.94
2019-05-22T23:16:57.327Z,5.89
2019-05-22T23:19:40.441Z,5.71
2019-05-22T23:22:11.736Z,5.54
2019-05-22T23:24:42.996Z,5.50
2019-05-22T23:27:13.007Z,5.41
2019-05-22T23:29:41.989Z,5.30
2019-05-22T23:32:11.752Z,5.22
2019-05-22T23:34:41.051Z,5.11
2019-05-22T23:37:10.567Z,5.07
2019-05-22T23:39:39.444Z,5.04
2019-05-22T23:42:12.435Z,5.05
2019-05-22T23:44:40.762Z,4.96
2019-05-22T23:47:09.037Z,4.85
2019-05-22T23:49:39.185Z,4.81
2019-05-22T23:52:07.350Z,4.71
2019-05-22T23:54:36.772Z,4.66
2019-05-22T23:57:05.362Z,4.70
2019-05-22T23:59:35.631Z,4.60
